createdAt,value
2023-05-09T00:02:17.301Z,20.45
2023-05-09T00:04:44.324Z,20.39
2023-05-09T00:07:11.236Z,20.16
2023-05-09T00:09:37.915Z,20.19
2023-05-09T00:12:05.620Z,20.11
2023-05-09T00:14:33.668Z,20.05
2023-05-09T00:17:00.896Z,20.38
2023-05-09T00:19:27.676Z,20.43
2023-05-09T00:21:54.422Z,20.58
2023-05-09T00:27:12.682Z,23.95
2023-05-09T00:29:39.527Z,21.86
2023-05-09T00:32:06.331Z,21.70
2023-05-09T00:34:33.589Z,21.79
2023-05-09T00:37:00.747Z,21.71
2023-05-09T00:39:27.470Z,21.97
2023-05-09T00:41:55.968Z,21.90
2023-05-09T00:44:22.728Z,21.84
2023-05-09T00:46:49.575Z,21.95
2023-05-09T00:49:16.452Z,22.07
2023-05-09T00:51:43.262Z,22.01
2023-05-09T00:54:10.005Z,21.86
2023-05-09T00:56:36.799Z,21.78
2023-05-09T00:59:03.781Z,21.44
2023-05-09T01:01:30.964Z,21.37
2023-05-09T01:03:57.956Z,21.21
2023-05-09T01:06:32.985Z,21.10
2023-05-09T01:09:04.021Z,20.98
2023-05-09T01:11:39.467Z,21.04
2023-05-09T01:14:26.100Z,21.21
2023-05-09T01:17:09.104Z,20.82
2023-05-09T01:19:58.872Z,20.82
2023-05-09T01:22:36.000Z,20.82
2023-05-09T01:25:40.578Z,20.72
2023-05-09T01:28:08.963Z,20.61
2023-05-09T01:30:36.224Z,20.71
2023-05-09T01:33:03.404Z,20.64
2023-05-09T01:35:30.474Z,20.79
2023-05-09T01:37:57.164Z,20.68
2023-05-09T01:40:24.398Z,20.36
2023-05-09T01:43:00.157Z,20.64
2023-05-09T01:45:27.146Z,20.65
2023-05-09T01:47:53.885Z,20.58
2023-05-09T01:50:20.658Z,20.66
2023-05-09T01:52:50.051Z,20.63
2023-05-09T01:55:17.095Z,20.82
2023-05-09T01:57:45.086Z,20.83
2023-05-09T02:00:13.758Z,20.70
2023-05-09T02:02:40.942Z,20.77
2023-05-09T02:05:09.495Z,20.72
2023-05-09T02:07:36.408Z,20.90
2023-05-09T02:10:03.870Z,21.09
2023-05-09T02:12:30.813Z,20.95
2023-05-09T02:14:57.543Z,21.37
2023-05-09T02:17:24.309Z,21.31
2023-05-09T02:19:51.242Z,21.38
2023-05-09T02:22:17.939Z,21.39
2023-05-09T02:24:45.517Z,21.36
2023-05-09T02:27:12.587Z,21.42
2023-05-09T02:29:42.357Z,21.32
2023-05-09T02:32:17.177Z,21.02
2023-05-09T02:34:44.027Z,21.16
2023-05-09T02:37:10.829Z,21.09
2023-05-09T02:39:37.753Z,21.05
2023-05-09T02:42:11.466Z,21.28
2023-05-09T02:44:39.130Z,21.35
2023-05-09T02:47:06.807Z,21.55
2023-05-09T02:49:34.032Z,21.41
2023-05-09T02:52:01.633Z,21.52
2023-05-09T02:54:28.524Z,21.29
2023-05-09T02:56:55.907Z,21.00
2023-05-09T02:59:22.741Z,20.97
2023-05-09T03:01:50.101Z,21.36
2023-05-09T03:04:18.183Z,21.02
2023-05-09T03:06:45.227Z,21.10
2023-05-09T03:09:12.675Z,21.03
2023-05-09T03:11:39.539Z,21.02
2023-05-09T03:14:08.430Z,20.94
2023-05-09T03:16:35.630Z,20.82
2023-05-09T03:19:03.725Z,20.92
2023-05-09T03:21:31.988Z,21.03
2023-05-09T03:23:59.762Z,20.89
2023-05-09T03:26:26.601Z,21.18
2023-05-09T03:28:53.852Z,21.20
2023-05-09T03:31:20.608Z,21.13
2023-05-09T03:33:47.482Z,20.92
2023-05-09T03:36:14.846Z,20.96
2023-05-09T03:38:42.496Z,21.04
2023-05-09T03:41:09.862Z,21.07
2023-05-09T03:43:36.667Z,21.31
2023-05-09T03:46:04.087Z,21.37
2023-05-09T03:48:31.952Z,21.38
2023-05-09T03:50:58.821Z,20.98
2023-05-09T03:53:27.005Z,20.96
2023-05-09T03:55:54.355Z,20.90
2023-05-09T03:58:21.376Z,20.27
2023-05-09T04:00:48.258Z,20.08
2023-05-09T04:03:18.752Z,19.88
2023-05-09T04:05:46.956Z,19.68
2023-05-09T04:08:21.326Z,19.21
2023-05-09T04:10:49.862Z,19.40
2023-05-09T04:13:16.792Z,19.56
2023-05-09T04:15:43.842Z,19.83
2023-05-09T04:18:10.632Z,19.99
2023-05-09T04:20:37.405Z,19.60
2023-05-09T04:23:04.195Z,19.51
2023-05-09T04:25:31.832Z,19.56
2023-05-09T04:27:58.774Z,19.43
2023-05-09T04:30:27.248Z,19.17
2023-05-09T04:32:55.403Z,19.48
2023-05-09T04:35:22.795Z,19.59
2023-05-09T04:37:50.639Z,19.35
2023-05-09T04:40:17.826Z,19.32
2023-05-09T04:42:50.162Z,19.28
2023-05-09T04:45:17.893Z,19.45
2023-05-09T04:47:44.938Z,19.12
2023-05-09T04:50:12.087Z,19.07
2023-05-09T04:52:38.795Z,18.99
2023-05-09T04:55:06.258Z,18.90
2023-05-09T04:57:36.554Z,18.53
2023-05-09T05:00:07.108Z,18.38
2023-05-09T05:02:34.267Z,18.49
2023-05-09T05:05:10.959Z,18.56
2023-05-09T05:07:39.607Z,18.54
2023-05-09T05:10:07.028Z,18.22
2023-05-09T05:12:34.657Z,18.00
2023-05-09T05:15:01.549Z,18.32
2023-05-09T05:17:29.646Z,18.64
2023-05-09T05:19:57.544Z,18.04
2023-05-09T05:22:25.132Z,18.16
2023-05-09T05:24:51.867Z,18.22
2023-05-09T05:27:18.607Z,17.97
2023-05-09T05:29:45.686Z,17.95
2023-05-09T05:32:12.546Z,17.60
2023-05-09T05:34:39.887Z,17.62
2023-05-09T05:37:06.718Z,17.23
2023-05-09T05:39:33.787Z,17.22
2023-05-09T05:42:00.924Z,17.29
2023-05-09T05:44:28.472Z,17.42
2023-05-09T05:46:55.205Z,17.34
2023-05-09T05:49:24.948Z,17.40
2023-05-09T05:51:51.881Z,17.23
2023-05-09T05:54:19.180Z,16.98
2023-05-09T05:56:46.718Z,17.03
2023-05-09T05:59:13.722Z,16.81
2023-05-09T06:01:40.896Z,16.69
2023-05-09T06:04:07.978Z,16.43
2023-05-09T06:06:34.954Z,16.07
2023-05-09T06:09:01.682Z,16.09
2023-05-09T06:11:28.433Z,15.88
2023-05-09T06:13:55.655Z,15.58
2023-05-09T06:16:22.966Z,15.19
2023-05-09T06:18:50.320Z,14.80
2023-05-09T06:21:17.089Z,14.90
2023-05-09T06:24:01.307Z,14.78
2023-05-09T06:26:30.823Z,14.45
2023-05-09T06:28:58.077Z,14.36
2023-05-09T06:31:25.804Z,14.18
2023-05-09T06:33:52.983Z,14.21
2023-05-09T06:36:20.751Z,14.43
2023-05-09T06:38:47.489Z,13.81
2023-05-09T06:41:14.236Z,13.41
2023-05-09T06:43:41.007Z,13.50
2023-05-09T06:46:07.917Z,12.65
2023-05-09T06:48:34.793Z,12.38
2023-05-09T06:51:01.550Z,12.43
2023-05-09T06:53:28.332Z,12.60
2023-05-09T06:55:55.099Z,12.44
2023-05-09T06:58:21.827Z,12.26
2023-05-09T07:00:48.597Z,12.31
2023-05-09T07:03:16.127Z,12.46
2023-05-09T07:05:42.864Z,12.14
2023-05-09T07:08:09.577Z,11.94
2023-05-09T07:10:36.279Z,11.70
2023-05-09T07:13:03.072Z,11.53
2023-05-09T07:15:40.593Z,11.42
2023-05-09T07:18:09.463Z,11.86
2023-05-09T07:20:36.584Z,11.77
2023-05-09T07:23:04.170Z,11.81
2023-05-09T07:25:31.067Z,11.39
2023-05-09T07:27:57.976Z,11.76
2023-05-09T07:30:25.303Z,11.83
2023-05-09T07:32:52.456Z,11.33
2023-05-09T07:35:20.151Z,11.06
2023-05-09T07:37:46.887Z,11.12
2023-05-09T07:40:14.147Z,10.73
2023-05-09T07:42:42.175Z,11.02
2023-05-09T07:45:10.468Z,10.44
2023-05-09T07:47:37.267Z,10.52
2023-05-09T07:50:04.279Z,10.71
2023-05-09T07:52:30.999Z,10.59
2023-05-09T07:54:57.736Z,10.63
2023-05-09T07:57:24.436Z,10.54
2023-05-09T07:59:51.352Z,10.72
2023-05-09T08:02:18.164Z,11.22
2023-05-09T08:04:48.716Z,10.76
2023-05-09T08:07:15.721Z,10.51
2023-05-09T08:09:42.420Z,10.44
2023-05-09T08:12:09.142Z,10.16
2023-05-09T08:14:35.894Z,9.84
2023-05-09T08:17:02.597Z,10.02
2023-05-09T08:19:29.515Z,10.14
2023-05-09T08:21:57.303Z,10.47
2023-05-09T08:24:24.015Z,9.86
2023-05-09T08:26:50.852Z,9.92
2023-05-09T08:29:17.908Z,9.65
2023-05-09T08:31:44.757Z,9.54
2023-05-09T08:34:11.564Z,9.59
2023-05-09T08:36:38.326Z,10.05
2023-05-09T08:39:05.025Z,10.22
2023-05-09T08:41:33.150Z,10.15
2023-05-09T08:44:00.177Z,10.04
2023-05-09T08:46:29.780Z,10.08
2023-05-09T08:48:57.082Z,10.20
2023-05-09T08:51:23.851Z,10.11
2023-05-09T08:53:51.131Z,10.02
2023-05-09T08:56:17.865Z,10.06
2023-05-09T08:58:44.631Z,10.26
2023-05-09T09:01:13.298Z,9.88
2023-05-09T09:03:40.122Z,9.87
2023-05-09T09:06:07.856Z,10.08
2023-05-09T09:08:34.602Z,9.91
2023-05-09T09:11:01.317Z,9.86
2023-05-09T09:13:28.280Z,9.83
2023-05-09T09:15:55.071Z,9.41
2023-05-09T09:18:28.422Z,9.43
2023-05-09T09:21:00.801Z,9.11
2023-05-09T09:23:27.974Z,8.99
2023-05-09T09:26:06.885Z,9.11
2023-05-09T09:28:33.779Z,9.28
2023-05-09T09:31:00.626Z,9.55
2023-05-09T09:33:28.704Z,9.59
2023-05-09T09:35:56.532Z,9.58
2023-05-09T09:38:24.156Z,9.69
2023-05-09T09:40:58.013Z,10.02
2023-05-09T09:43:31.802Z,10.10
2023-05-09T09:46:05.602Z,10.40
2023-05-09T09:48:33.981Z,10.34
2023-05-09T09:51:11.474Z,10.41
2023-05-09T09:53:42.034Z,10.57
2023-05-09T09:56:09.230Z,10.32
2023-05-09T09:58:36.359Z,10.44
2023-05-09T10:01:07.388Z,10.61
2023-05-09T10:03:42.066Z,10.53
2023-05-09T10:06:13.044Z,10.42
2023-05-09T10:08:40.092Z,10.09
2023-05-09T10:11:07.557Z,10.05
2023-05-09T10:13:34.908Z,10.40
2023-05-09T10:16:01.860Z,10.32
2023-05-09T10:18:29.309Z,10.51
2023-05-09T10:20:56.999Z,10.97
2023-05-09T10:23:24.314Z,10.55
2023-05-09T10:26:03.637Z,10.83
2023-05-09T10:28:32.284Z,10.75
2023-05-09T10:31:08.943Z,10.86
2023-05-09T10:33:46.240Z,10.55
2023-05-09T10:36:13.367Z,10.10
2023-05-09T10:38:40.043Z,10.28
2023-05-09T10:41:06.788Z,10.32
2023-05-09T10:43:34.763Z,10.45
2023-05-09T10:46:06.289Z,10.19
2023-05-09T10:48:33.045Z,9.96
2023-05-09T10:51:03.536Z,10.07
2023-05-09T10:53:44.228Z,9.80
2023-05-09T10:56:35.834Z,10.16
2023-05-09T10:59:02.992Z,10.57
2023-05-09T11:01:37.007Z,10.33
2023-05-09T11:04:11.404Z,10.53
2023-05-09T11:06:46.315Z,10.48
2023-05-09T11:09:33.497Z,10.27
2023-05-09T11:12:08.419Z,10.10
2023-05-09T11:14:48.904Z,10.77
2023-05-09T11:17:22.034Z,10.43
2023-05-09T11:19:51.886Z,10.57
2023-05-09T11:22:28.963Z,10.49
2023-05-09T11:25:05.560Z,10.46
2023-05-09T11:27:52.434Z,10.73
2023-05-09T11:30:20.518Z,10.92
2023-05-09T11:32:52.143Z,10.66
2023-05-09T11:35:21.492Z,10.76
2023-05-09T11:38:01.614Z,10.82
2023-05-09T11:40:28.892Z,10.64
2023-05-09T11:42:58.597Z,10.96
2023-05-09T11:45:35.283Z,11.02
2023-05-09T11:48:03.370Z,11.25
2023-05-09T11:50:30.327Z,11.30
2023-05-09T11:52:57.399Z,11.58
2023-05-09T11:55:25.789Z,11.64
2023-05-09T11:57:53.522Z,11.82
2023-05-09T12:00:22.070Z,11.36
2023-05-09T12:02:49.226Z,11.19
2023-05-09T12:05:17.483Z,10.94
2023-05-09T12:07:44.688Z,10.65
2023-05-09T12:10:18.978Z,10.60
2023-05-09T12:12:51.142Z,10.55
2023-05-09T12:15:18.600Z,10.49
2023-05-09T12:17:47.253Z,10.47
2023-05-09T12:20:15.258Z,11.00
2023-05-09T12:22:45.252Z,11.05
2023-05-09T12:25:12.571Z,11.23
2023-05-09T12:27:40.281Z,11.08
2023-05-09T12:30:12.051Z,10.81
2023-05-09T12:32:40.444Z,10.94
2023-05-09T12:35:10.498Z,10.84
2023-05-09T12:37:38.613Z,10.82
2023-05-09T12:40:08.671Z,10.92
2023-05-09T12:44:08.475Z,12.39
2023-05-09T12:46:36.922Z,11.42
2023-05-09T12:49:04.779Z,11.43
2023-05-09T12:51:31.567Z,11.10
2023-05-09T12:54:02.726Z,11.36
2023-05-09T12:56:32.591Z,11.34
2023-05-09T12:58:59.110Z,11.30
2023-05-09T13:01:29.077Z,11.17
2023-05-09T13:04:05.956Z,11.16
2023-05-09T13:06:33.793Z,11.14
2023-05-09T13:09:01.869Z,11.24
2023-05-09T13:11:28.905Z,11.19
2023-05-09T13:13:55.673Z,11.16
2023-05-09T13:16:22.629Z,11.09
2023-05-09T13:18:49.395Z,11.43
2023-05-09T13:21:18.712Z,11.72
2023-05-09T13:23:49.357Z,11.95
2023-05-09T13:26:17.646Z,11.78
2023-05-09T13:28:44.128Z,11.83
2023-05-09T13:31:10.957Z,11.93
2023-05-09T13:33:37.599Z,12.09
2023-05-09T13:36:06.534Z,12.03
2023-05-09T13:38:37.946Z,11.95
2023-05-09T13:41:04.482Z,12.02
2023-05-09T13:43:33.566Z,12.01
2023-05-09T13:46:00.745Z,12.19
2023-05-09T13:48:27.397Z,12.36
2023-05-09T13:50:55.629Z,12.49
2023-05-09T13:53:34.190Z,12.80
2023-05-09T13:56:08.088Z,12.50
2023-05-09T13:58:35.569Z,12.24
2023-05-09T14:01:02.307Z,12.44
2023-05-09T14:03:29.037Z,12.18
2023-05-09T14:05:55.675Z,12.35
2023-05-09T14:08:23.604Z,12.40
2023-05-09T14:10:50.609Z,12.59
2023-05-09T14:13:17.562Z,12.42
2023-05-09T14:15:44.228Z,12.06
2023-05-09T14:18:13.767Z,12.40
2023-05-09T14:20:42.628Z,12.48
2023-05-09T14:23:10.445Z,12.41
2023-05-09T14:25:37.264Z,12.37
2023-05-09T14:28:06.193Z,12.49
2023-05-09T14:30:33.621Z,12.53
2023-05-09T14:33:00.217Z,12.06
2023-05-09T14:35:27.245Z,12.32
2023-05-09T14:37:53.838Z,12.13
2023-05-09T14:40:20.572Z,12.04
2023-05-09T14:42:47.875Z,11.87
2023-05-09T14:45:14.784Z,12.08
2023-05-09T14:47:41.578Z,12.16
2023-05-09T14:50:10.731Z,12.13
2023-05-09T14:52:37.779Z,12.17
2023-05-09T14:55:06.569Z,12.46
2023-05-09T14:57:33.582Z,12.31
2023-05-09T15:00:20.398Z,12.31
2023-05-09T15:02:46.880Z,12.48
2023-05-09T15:05:13.534Z,12.49
2023-05-09T15:07:40.825Z,12.67
2023-05-09T15:10:07.651Z,12.55
2023-05-09T15:12:34.715Z,12.78
2023-05-09T15:15:14.887Z,12.95
2023-05-09T15:17:42.468Z,12.83
2023-05-09T15:20:10.617Z,12.54
2023-05-09T15:22:37.255Z,12.84
2023-05-09T15:25:06.209Z,12.75
2023-05-09T15:27:33.298Z,12.95
2023-05-09T15:30:00.210Z,12.85
2023-05-09T15:32:27.110Z,12.93
2023-05-09T15:34:53.708Z,13.13
2023-05-09T15:37:20.251Z,13.34
2023-05-09T15:39:46.783Z,13.11
2023-05-09T15:42:14.303Z,13.39
2023-05-09T15:44:41.566Z,13.29
2023-05-09T15:47:08.741Z,13.10
2023-05-09T15:49:35.573Z,13.19
2023-05-09T15:52:03.401Z,13.11
2023-05-09T15:54:31.560Z,13.30
2023-05-09T15:56:58.704Z,13.40
2023-05-09T15:59:26.533Z,13.65
2023-05-09T16:01:54.066Z,13.75
2023-05-09T16:04:21.162Z,13.65
2023-05-09T16:06:48.327Z,13.74
2023-05-09T16:09:15.044Z,13.53
2023-05-09T16:11:42.571Z,13.52
2023-05-09T16:14:10.830Z,13.43
2023-05-09T16:16:38.182Z,13.19
2023-05-09T16:19:08.983Z,13.33
2023-05-09T16:21:37.081Z,13.31
2023-05-09T16:24:04.335Z,13.38
2023-05-09T16:26:31.652Z,13.69
2023-05-09T16:28:58.172Z,13.56
2023-05-09T16:31:25.780Z,13.61
2023-05-09T16:33:53.482Z,13.80
2023-05-09T16:36:20.389Z,13.67
2023-05-09T16:38:49.389Z,13.80
2023-05-09T16:41:16.380Z,13.74
2023-05-09T16:43:43.222Z,13.83
2023-05-09T16:46:09.875Z,13.78
2023-05-09T16:48:36.478Z,13.72
2023-05-09T16:51:03.614Z,13.90
2023-05-09T16:53:30.292Z,13.88
2023-05-09T16:55:57.011Z,13.91
2023-05-09T16:58:24.594Z,14.23
2023-05-09T17:00:51.481Z,14.11
2023-05-09T17:03:18.240Z,14.21
2023-05-09T17:05:44.950Z,14.15
2023-05-09T17:08:11.500Z,14.24
2023-05-09T17:10:40.749Z,14.43
2023-05-09T17:13:09.704Z,14.44
2023-05-09T17:15:37.782Z,14.75
2023-05-09T17:18:04.722Z,14.56
2023-05-09T17:20:31.520Z,14.62
2023-05-09T17:22:58.065Z,14.96
2023-05-09T17:25:24.525Z,15.01
2023-05-09T17:27:51.194Z,15.01
2023-05-09T17:30:19.404Z,15.23
2023-05-09T17:32:48.269Z,15.42
2023-05-09T17:35:14.998Z,15.53
2023-05-09T17:37:44.095Z,15.72
2023-05-09T17:40:11.314Z,15.63
2023-05-09T17:42:39.374Z,15.71
2023-05-09T17:45:07.151Z,15.67
2023-05-09T17:47:33.797Z,16.01
2023-05-09T17:50:00.717Z,15.83
2023-05-09T17:52:27.203Z,16.06
2023-05-09T17:54:53.754Z,16.36
2023-05-09T17:57:20.359Z,16.31
2023-05-09T17:59:48.021Z,16.62
2023-05-09T18:02:16.083Z,17.01
2023-05-09T18:04:44.645Z,17.40
2023-05-09T18:07:11.325Z,17.39
2023-05-09T18:09:39.577Z,17.36
2023-05-09T18:12:06.565Z,17.83
2023-05-09T18:14:33.083Z,18.14
2023-05-09T18:16:59.752Z,18.53
2023-05-09T18:19:26.281Z,18.40
2023-05-09T18:21:53.161Z,18.10
2023-05-09T18:24:20.947Z,18.18
2023-05-09T18:26:48.546Z,18.32
2023-05-09T18:29:16.411Z,18.51
2023-05-09T18:31:43.179Z,18.94
2023-05-09T18:34:10.280Z,19.09
2023-05-09T18:36:37.049Z,19.19
2023-05-09T18:39:03.897Z,19.50
2023-05-09T18:41:32.372Z,19.54
2023-05-09T18:43:58.962Z,19.67
2023-05-09T18:46:27.252Z,19.96
2023-05-09T18:48:54.267Z,20.16
2023-05-09T18:51:20.961Z,20.15
2023-05-09T18:53:48.761Z,19.99
2023-05-09T18:56:17.727Z,19.90
2023-05-09T18:58:44.364Z,19.84
2023-05-09T19:01:11.527Z,19.77
2023-05-09T19:03:45.274Z,19.73
2023-05-09T19:06:12.776Z,19.55
2023-05-09T19:08:40.568Z,19.36
2023-05-09T19:11:07.173Z,19.33
2023-05-09T19:13:37.818Z,19.34
2023-05-09T19:16:04.974Z,19.32
2023-05-09T19:18:31.942Z,19.16
2023-05-09T19:20:58.543Z,19.37
2023-05-09T19:23:28.555Z,19.43
2023-05-09T19:25:55.069Z,19.42
2023-05-09T19:28:24.590Z,19.49
2023-05-09T19:30:51.714Z,19.40
2023-05-09T19:33:19.107Z,19.34
2023-05-09T19:35:45.977Z,19.57
2023-05-09T19:38:13.710Z,19.84
2023-05-09T19:40:40.334Z,19.72
2023-05-09T19:43:06.877Z,20.08
2023-05-09T19:45:33.432Z,20.18
2023-05-09T19:48:00.032Z,20.54
2023-05-09T19:50:26.877Z,20.61
2023-05-09T19:52:53.765Z,20.87
2023-05-09T19:55:20.306Z,21.14
2023-05-09T19:57:46.814Z,21.15
2023-05-09T20:00:14.242Z,21.30
2023-05-09T20:02:41.880Z,21.84
2023-05-09T20:05:08.687Z,22.12
2023-05-09T20:07:36.240Z,22.47
2023-05-09T20:10:03.002Z,22.32
2023-05-09T20:12:30.531Z,22.35
2023-05-09T20:14:57.779Z,22.60
2023-05-09T20:17:27.376Z,23.33
2023-05-09T20:19:54.129Z,23.71
2023-05-09T20:22:21.276Z,23.87
2023-05-09T20:24:48.009Z,23.56
2023-05-09T20:27:14.755Z,23.69
2023-05-09T20:29:41.381Z,23.87
2023-05-09T20:32:08.287Z,23.56
2023-05-09T20:34:37.671Z,23.61
2023-05-09T20:37:04.329Z,23.44
2023-05-09T20:39:31.027Z,23.54
2023-05-09T20:42:01.550Z,23.67
2023-05-09T20:44:28.480Z,23.81
2023-05-09T20:46:55.026Z,24.21
2023-05-09T20:49:22.385Z,23.84
2023-05-09T20:51:49.063Z,23.89
2023-05-09T20:54:17.037Z,23.78
2023-05-09T20:56:43.556Z,23.35
2023-05-09T20:59:10.072Z,23.46
2023-05-09T21:01:39.420Z,23.37
2023-05-09T21:04:07.663Z,23.36
2023-05-09T21:06:36.995Z,23.88
2023-05-09T21:09:05.017Z,23.69
2023-05-09T21:11:32.552Z,23.48
2023-05-09T21:14:00.244Z,23.42
2023-05-09T21:16:27.735Z,23.33
2023-05-09T21:18:54.239Z,23.10
2023-05-09T21:21:20.757Z,22.65
2023-05-09T21:23:47.329Z,22.45
2023-05-09T21:26:13.968Z,22.60
2023-05-09T21:28:40.684Z,22.71
2023-05-09T21:31:08.987Z,22.89
2023-05-09T21:33:37.821Z,22.87
2023-05-09T21:36:05.490Z,22.90
2023-05-09T21:38:32.512Z,22.75
2023-05-09T21:40:59.248Z,22.71
2023-05-09T21:43:26.835Z,23.01
2023-05-09T21:45:54.129Z,22.87
2023-05-09T21:48:20.976Z,22.62
2023-05-09T21:50:47.672Z,22.65
2023-05-09T21:53:14.385Z,22.60
2023-05-09T21:55:41.165Z,22.65
2023-05-09T21:58:07.759Z,22.86
2023-05-09T22:00:34.746Z,22.72
2023-05-09T22:03:01.438Z,22.74
2023-05-09T22:05:28.344Z,22.38
2023-05-09T22:07:55.095Z,22.41
2023-05-09T22:10:21.914Z,22.51
2023-05-09T22:12:48.572Z,22.56
2023-05-09T22:15:15.282Z,22.55
2023-05-09T22:17:42.411Z,22.37
2023-05-09T22:20:10.123Z,22.23
2023-05-09T22:22:37.157Z,22.30
2023-05-09T22:25:04.954Z,22.19
2023-05-09T22:27:31.940Z,22.32
2023-05-09T22:29:58.586Z,22.32
2023-05-09T22:32:25.847Z,22.35
2023-05-09T22:34:53.539Z,22.58
2023-05-09T22:37:20.158Z,22.33
2023-05-09T22:39:46.753Z,22.33
2023-05-09T22:42:13.494Z,22.36
2023-05-09T22:44:40.315Z,22.14
2023-05-09T22:47:07.624Z,22.28
2023-05-09T22:49:35.088Z,22.49
2023-05-09T22:52:02.130Z,22.55
2023-05-09T22:54:28.878Z,22.85
2023-05-09T22:56:55.571Z,22.95
2023-05-09T22:59:22.597Z,22.70
2023-05-09T23:01:50.222Z,22.56
2023-05-09T23:04:16.831Z,22.37
2023-05-09T23:06:43.738Z,22.51
2023-05-09T23:09:10.438Z,22.38
2023-05-09T23:11:37.334Z,22.26
2023-05-09T23:14:04.021Z,22.12
2023-05-09T23:16:31.426Z,22.06
2023-05-09T23:18:58.101Z,22.14
2023-05-09T23:21:24.828Z,21.97
2023-05-09T23:23:51.501Z,22.37
2023-05-09T23:26:18.083Z,22.49
2023-05-09T23:28:44.759Z,22.59
2023-05-09T23:31:11.417Z,22.74
2023-05-09T23:33:38.427Z,22.97
2023-05-09T23:36:05.958Z,22.88
2023-05-09T23:38:32.518Z,22.83
2023-05-09T23:41:00.409Z,22.58
2023-05-09T23:43:26.965Z,22.43
2023-05-09T23:45:53.914Z,22.51
2023-05-09T23:48:20.755Z,22.57
2023-05-09T23:50:48.790Z,22.41
2023-05-09T23:53:16.068Z,22.16
2023-05-09T23:55:42.582Z,22.17
2023-05-09T23:58:09.156Z,22.22
